Main page
METAR-TAF:

METAR-TAF

Airports :

Presidente Carlos Ibáñez del Campo International Airport

Punta Arenas, Chile

latitude: 53-00S, longitude: 070-51W, elevation: 37 m

Current weather observation

The report was made 14 minutes ago, at 18:00 UTC
Wind 17 kt from the West
Temperature 1°C
Humidity 80%
Pressure 1002 hPa
Visibility 10 km or more
Few clouds at a height of 2500 ft

METAR: SCCI 151800Z 27017KT 9999 FEW025 01/M02 Q1002 NOSIG

Time: 14:14 (18:14 UTC)

Forecast

The report was made 1 hour and 25 minutes ago, at 16:49 UTC
Forecast valid from 15 at 18 UTC to 16 at 18 UTC
Wind 18 kt from the West/Southwest
Visibility 10 km or more
Few clouds at a height of 3500 ft
Temporary
from 16 at 11 UTC to 16 at 18 UTC
Wind 25 kt from the West/Southwest with gusts up to 35 kt
Visibility: 5000 m
Broken clouds at a height of 1000 ft, Towering cumulus.
snow showers,

TAF: SCCI 151649Z 1518/1618 25018KT 9999 FEW035 TNM02/1608Z TX02/1518Z TEMPO 1611/1618 25025G35KT 5000 SHSN BKN010TCU

Weather observations and forecasts of more than 4000 airports (METAR and TAF reports).

The available stations are represented by yellow and red dots on the map.

Hover mouse over dot to see the name of the station.

Then click to see weather observations and forecasts.

To change the map : click on the green buttons with a black cross to zoom in, on the green button with a dash to zoom out, or on the green arrows for adjacent maps.


METAR-TAF: